Time;durP1;ratioP1;P1;durP2;ratioP2;P2;SDS_P1;SDS_P2;PMS_P1;PMS_P2;Temp;Humidity;BMP_temperature;BMP_pressure;BME280_temperature;BME280_humidity;BME280_pressure;Samples;Min_cycle;Max_cycle;Signal;HPM_P1;HPM_P2
2022/05/01 00:01:51;;;;;;;;;;;10.30;98.50;;;;;;4968691;28;19934;-81
2022/05/01 00:04:19;;;;;;;;;;;10.30;98.50;;;;;;4965038;28;19926;-80
2022/05/01 00:06:47;;;;;;;;;;;10.30;98.50;;;;;;4971682;28;19926;-81
2022/05/01 00:09:14;;;;;;;;;;;10.30;98.50;;;;;;4972616;28;19926;-80
2022/05/01 00:11:42;;;;;;;;;;;10.30;98.50;;;;;;4971687;28;19934;-80
2022/05/01 00:14:09;;;;;;;;;;;10.30;98.50;;;;;;4968164;28;20016;-81
2022/05/01 00:16:37;;;;;;;;;;;10.20;98.50;;;;;;4965322;28;19934;-81
2022/05/01 00:19:04;;;;;;;;;;;10.20;98.50;;;;;;4973806;28;19973;-81
2022/05/01 00:21:32;;;;;;;;;;;10.20;98.50;;;;;;4988599;28;19922;-80
2022/05/01 00:24:00;;;;;;;;;;;10.20;98.50;;;;;;4983664;28;19934;-81
2022/05/01 00:26:28;;;;;;;;;;;10.10;98.40;;;;;;4968884;28;19938;-80
2022/05/01 00:28:55;;;;;;;;;;;10.10;98.50;;;;;;4973692;28;20185;-80
2022/05/01 00:31:22;;;;;;;;;;;10.10;98.50;;;;;;4970607;28;19930;-80
2022/05/01 00:36:36;;;;;;;;;;;10.10;98.50;;;;;;4970625;28;19937;-81
2022/05/01 00:39:04;;;;;;;;;;;10.10;98.40;;;;;;4970897;28;20372;-80
2022/05/01 00:41:32;;;;;;;;;;;10.00;98.50;;;;;;4970032;28;20296;-81
2022/05/01 00:44:00;;;;;;;;;;;10.00;98.70;;;;;;4976687;28;19926;-79
2022/05/01 00:46:28;;;;;;;;;;;10.00;98.50;;;;;;5016153;23;19926;-77
2022/05/01 00:48:55;;;;;;;;;;;10.00;98.40;;;;;;4971786;28;19926;-76
2022/05/01 00:51:22;;;;;;;;;;;9.90;99.20;;;;;;4967506;28;19973;-76
2022/05/01 00:53:51;;;;;;;;;;;9.90;98.90;;;;;;4962541;28;19941;-76
2022/05/01 00:56:19;;;;;;;;;;;9.90;99.20;;;;;;4960470;28;19938;-75
2022/05/01 00:58:46;;;;;;;;;;;9.90;98.90;;;;;;4965746;28;19934;-75
2022/05/01 01:01:13;;;;;;;;;;;9.90;99.00;;;;;;4963238;28;20328;-77
2022/05/01 01:03:41;;;;;;;;;;;9.90;99.00;;;;;;4980465;28;19930;-76
2022/05/01 01:06:08;;;;;;;;;;;9.90;99.00;;;;;;4965021;28;19934;-75
2022/05/01 01:08:35;;;;;;;;;;;9.80;98.90;;;;;;4966087;28;20315;-75
2022/05/01 01:11:04;;;;;;;;;;;9.80;98.90;;;;;;4963469;28;20418;-76
2022/05/01 01:13:31;;;;;;;;;;;9.80;98.90;;;;;;4960571;28;20021;-76
2022/05/01 01:15:59;;;;;;;;;;;9.80;99.00;;;;;;4963068;28;20316;-76
2022/05/01 01:18:26;;;;;;;;;;;9.80;99.00;;;;;;4965718;28;19926;-75
2022/05/01 01:20:55;;;;;;;;;;;9.80;98.90;;;;;;4970172;28;19934;-77
2022/05/01 01:23:23;;;;;;;;;;;9.80;99.00;;;;;;4970813;28;19926;-75
2022/05/01 01:25:50;;;;;;;;;;;9.70;98.90;;;;;;4962902;28;20416;-76
2022/05/01 01:28:19;;;;;;;;;;;9.70;98.90;;;;;;4964841;28;20021;-76
2022/05/01 01:33:30;;;;;;;;;;;9.70;98.90;;;;;;4962486;28;19962;-75
2022/05/01 01:36:02;;;;;;;;;;;9.70;98.90;;;;;;4959613;28;20436;-75
2022/05/01 01:38:29;;;;;;;;;;;9.70;98.90;;;;;;4958925;28;19969;-76
2022/05/01 01:40:58;;;;;;;;;;;9.60;98.90;;;;;;4958612;28;20321;-75
2022/05/01 01:43:26;;;;;;;;;;;9.60;98.90;;;;;;4960987;28;20285;-75
2022/05/01 01:45:53;;;;;;;;;;;9.60;98.90;;;;;;4958437;28;19981;-76
2022/05/01 01:48:21;;;;;;;;;;;9.60;98.90;;;;;;4972303;28;19934;-76
2022/05/01 01:50:55;;;;;;;;;;;9.60;98.90;;;;;;4971425;28;20017;-75
2022/05/01 01:53:23;;;;;;;;;;;9.60;98.90;;;;;;4958591;28;19926;-77
2022/05/01 01:55:50;;;;;;;;;;;9.50;98.90;;;;;;4957853;28;19930;-75
2022/05/01 01:58:18;;;;;;;;;;;9.50;98.80;;;;;;4964657;28;19926;-76
2022/05/01 02:00:46;;;;;;;;;;;9.50;98.90;;;;;;4962405;28;19930;-76
2022/05/01 02:03:13;;;;;;;;;;;9.50;98.90;;;;;;4966177;28;20021;-76
2022/05/01 02:05:40;;;;;;;;;;;9.50;98.90;;;;;;4956510;28;19926;-75
2022/05/01 02:08:08;;;;;;;;;;;9.40;98.80;;;;;;4957264;28;19926;-75
2022/05/01 02:10:37;;;;;;;;;;;9.40;98.80;;;;;;4963207;28;20764;-75
2022/05/01 02:13:05;;;;;;;;;;;9.40;98.80;;;;;;4973598;28;19934;-75
2022/05/01 02:15:32;;;;;;;;;;;9.40;98.80;;;;;;4961829;28;19932;-76
2022/05/01 02:18:00;;;;;;;;;;;9.40;98.80;;;;;;4961048;28;19926;-75
2022/05/01 02:20:28;;;;;;;;;;;9.40;98.80;;;;;;4962015;28;20603;-75
2022/05/01 02:22:55;;;;;;;;;;;9.30;98.80;;;;;;4959545;28;19937;-75
2022/05/01 02:25:22;;;;;;;;;;;9.30;98.80;;;;;;4964424;28;20365;-75
2022/05/01 02:27:51;;;;;;;;;;;9.30;98.80;;;;;;4967215;28;20025;-76
2022/05/01 02:30:18;;;;;;;;;;;9.30;98.80;;;;;;4969000;28;19926;-75
2022/05/01 02:32:46;;;;;;;;;;;9.30;98.80;;;;;;4970143;28;19980;-77
2022/05/01 02:35:13;;;;;;;;;;;9.30;98.80;;;;;;4966765;28;19941;-75
2022/05/01 02:37:40;;;;;;;;;;;9.30;98.80;;;;;;4961145;28;21775;-76
2022/05/01 02:40:08;;;;;;;;;;;9.30;98.80;;;;;;4961784;28;19934;-76
2022/05/01 02:42:36;;;;;;;;;;;9.20;98.80;;;;;;4962789;28;19934;-75
2022/05/01 02:45:06;;;;;;;;;;;9.20;98.80;;;;;;4963240;28;19934;-75
2022/05/01 02:47:33;;;;;;;;;;;9.20;98.80;;;;;;4963711;28;19945;-75
2022/05/01 02:50:01;;;;;;;;;;;9.20;98.80;;;;;;4960868;28;19966;-76
2022/05/01 02:52:28;;;;;;;;;;;9.20;98.80;;;;;;4962873;28;19927;-76
2022/05/01 02:54:56;;;;;;;;;;;9.20;98.80;;;;;;4964639;28;19965;-75
2022/05/01 02:57:23;;;;;;;;;;;9.10;98.90;;;;;;4962230;28;19934;-75
2022/05/01 02:59:50;;;;;;;;;;;9.10;98.80;;;;;;4960686;28;19930;-76
2022/05/01 03:02:20;;;;;;;;;;;9.10;98.80;;;;;;4962506;28;19934;-75
2022/05/01 03:04:48;;;;;;;;;;;9.10;98.80;;;;;;4963204;28;19937;-75
2022/05/01 03:07:15;;;;;;;;;;;9.10;98.80;;;;;;4968768;28;20297;-76
2022/05/01 03:09:42;;;;;;;;;;;9.10;98.80;;;;;;4969739;28;20423;-76
2022/05/01 03:12:10;;;;;;;;;;;9.10;98.80;;;;;;4970072;28;20017;-75
2022/05/01 03:14:37;;;;;;;;;;;9.00;98.80;;;;;;4959698;28;19944;-76
2022/05/01 03:17:04;;;;;;;;;;;9.00;98.80;;;;;;4959963;28;19936;-76
2022/05/01 03:22:18;;;;;;;;;;;9.00;98.80;;;;;;4958007;28;20328;-76
2022/05/01 03:24:45;;;;;;;;;;;9.00;98.80;;;;;;4962070;28;20307;-76
2022/05/01 03:27:12;;;;;;;;;;;9.00;98.90;;;;;;4960926;28;19934;-76
2022/05/01 03:29:39;;;;;;;;;;;9.00;98.90;;;;;;4961781;28;19934;-77
2022/05/01 03:32:07;;;;;;;;;;;8.90;98.80;;;;;;4962482;28;19926;-75
2022/05/01 03:34:38;;;;;;;;;;;8.90;98.80;;;;;;4962858;28;19969;-75
2022/05/01 03:37:07;;;;;;;;;;;8.90;98.80;;;;;;4963242;28;20020;-75
2022/05/01 03:39:35;;;;;;;;;;;8.90;98.90;;;;;;4960301;28;19938;-76
2022/05/01 03:42:02;;;;;;;;;;;8.90;98.80;;;;;;4961021;28;20377;-75
2022/05/01 03:44:29;;;;;;;;;;;8.90;98.80;;;;;;4967800;28;19930;-75
2022/05/01 03:46:56;;;;;;;;;;;8.80;98.80;;;;;;4967262;28;19973;-76
2022/05/01 03:49:23;;;;;;;;;;;8.80;98.80;;;;;;4968914;28;20024;-76
2022/05/01 03:51:51;;;;;;;;;;;8.80;98.80;;;;;;4962885;28;20012;-76
2022/05/01 03:54:19;;;;;;;;;;;8.80;98.80;;;;;;4960710;28;19926;-75
2022/05/01 03:56:46;;;;;;;;;;;8.80;98.80;;;;;;4958265;28;19934;-76
2022/05/01 03:59:13;;;;;;;;;;;8.80;98.80;;;;;;4957347;28;20072;-75
2022/05/01 04:01:42;;;;;;;;;;;8.80;98.80;;;;;;4962205;28;19957;-77
2022/05/01 04:04:09;;;;;;;;;;;8.70;98.70;;;;;;4974871;28;20409;-75
2022/05/01 04:06:36;;;;;;;;;;;8.70;98.70;;;;;;4959169;28;20029;-75
2022/05/01 04:09:05;;;;;;;;;;;8.70;98.70;;;;;;4964893;28;20649;-75
2022/05/01 04:11:32;;;;;;;;;;;8.70;98.70;;;;;;4962823;28;19966;-76
2022/05/01 04:14:00;;;;;;;;;;;8.70;98.70;;;;;;4957584;28;20017;-76
2022/05/01 04:16:27;;;;;;;;;;;8.70;98.70;;;;;;4956780;28;19934;-75
2022/05/01 04:18:54;;;;;;;;;;;8.70;98.70;;;;;;4967846;28;19973;-76
2022/05/01 04:21:21;;;;;;;;;;;8.60;98.70;;;;;;4974250;28;20413;-76
2022/05/01 04:23:48;;;;;;;;;;;8.60;98.70;;;;;;4966876;28;20381;-76
2022/05/01 04:26:17;;;;;;;;;;;8.60;98.70;;;;;;4962585;28;19945;-75
2022/05/01 04:29:36;;;;;;;;;;;8.60;98.70;;;;;;4974113;28;19944;-76
2022/05/01 04:31:31;;;;;;;;;;;8.60;98.80;;;;;;4962803;28;19934;-76
2022/05/01 04:33:58;;;;;;;;;;;8.60;98.80;;;;;;4972683;28;20392;-77
2022/05/01 04:36:25;;;;;;;;;;;8.50;98.70;;;;;;4961070;28;19954;-75
2022/05/01 04:38:52;;;;;;;;;;;8.50;98.70;;;;;;4972838;28;20021;-75
2022/05/01 04:41:21;;;;;;;;;;;8.50;98.70;;;;;;4958467;28;19926;-77
2022/05/01 04:43:48;;;;;;;;;;;8.50;98.70;;;;;;4959937;28;20471;-76
2022/05/01 04:46:15;;;;;;;;;;;8.50;98.80;;;;;;4960730;28;19969;-76
2022/05/01 04:48:42;;;;;;;;;;;8.50;98.80;;;;;;4961452;28;19937;-76
2022/05/01 04:51:09;;;;;;;;;;;8.40;98.80;;;;;;4962558;28;19941;-75
2022/05/01 04:53:36;;;;;;;;;;;8.40;98.90;;;;;;4967060;28;19965;-75
2022/05/01 04:58:48;;;;;;;;;;;8.40;98.90;;;;;;4980548;28;19926;-76
2022/05/01 05:01:15;;;;;;;;;;;8.40;98.90;;;;;;4962835;28;19930;-75
2022/05/01 05:03:43;;;;;;;;;;;8.40;98.90;;;;;;4960473;28;19926;-76
2022/05/01 05:06:10;;;;;;;;;;;8.40;98.90;;;;;;4972594;28;20023;-76
2022/05/01 05:11:21;;;;;;;;;;;8.30;98.90;;;;;;4938637;28;19930;-75
2022/05/01 05:13:52;;;;;;;;;;;8.30;98.90;;;;;;4961665;28;19930;-75
2022/05/01 05:16:19;;;;;;;;;;;8.30;99.00;;;;;;4960636;28;20500;-74
2022/05/01 05:18:46;;;;;;;;;;;8.30;99.00;;;;;;4966350;28;19941;-75
2022/05/01 05:21:13;;;;;;;;;;;8.30;99.00;;;;;;4963935;28;19933;-76
2022/05/01 05:23:40;;;;;;;;;;;8.30;99.00;;;;;;4963525;28;19930;-75
2022/05/01 05:26:08;;;;;;;;;;;8.20;99.00;;;;;;4961421;28;19934;-75
2022/05/01 05:28:35;;;;;;;;;;;8.20;99.00;;;;;;4964881;28;19934;-75
2022/05/01 05:31:04;;;;;;;;;;;8.20;98.70;;;;;;4963752;28;19934;-76
2022/05/01 05:33:32;;;;;;;;;;;8.10;98.40;;;;;;4968650;28;19937;-75
2022/05/01 05:35:59;;;;;;;;;;;8.10;98.30;;;;;;4981385;28;20397;-76
2022/05/01 05:38:27;;;;;;;;;;;8.00;98.40;;;;;;4968389;28;19926;-75
2022/05/01 05:40:54;;;;;;;;;;;8.00;98.50;;;;;;4965585;28;19933;-75
2022/05/01 05:43:21;;;;;;;;;;;8.00;98.40;;;;;;4965199;28;19980;-75
2022/05/01 05:45:49;;;;;;;;;;;7.90;98.50;;;;;;4959579;28;19934;-75
2022/05/01 05:48:18;;;;;;;;;;;7.90;98.40;;;;;;4964067;28;19934;-78
2022/05/01 05:50:45;;;;;;;;;;;7.80;98.50;;;;;;4963208;28;19926;-75
2022/05/01 05:53:12;;;;;;;;;;;7.80;98.60;;;;;;4963205;28;19941;-77
2022/05/01 05:55:39;;;;;;;;;;;7.80;98.90;;;;;;4957621;28;20032;-76
2022/05/01 05:58:06;;;;;;;;;;;7.80;98.80;;;;;;4976921;28;20277;-75
2022/05/01 06:00:33;;;;;;;;;;;7.80;98.70;;;;;;4964273;28;20460;-75
2022/05/01 06:03:01;;;;;;;;;;;7.80;98.70;;;;;;4961927;28;19949;-77
2022/05/01 06:05:29;;;;;;;;;;;7.70;98.70;;;;;;4961801;28;19938;-77
2022/05/01 06:07:56;;;;;;;;;;;7.70;98.70;;;;;;4966488;28;19930;-77
2022/05/01 06:10:24;;;;;;;;;;;7.70;98.70;;;;;;4970317;28;20059;-74
2022/05/01 06:12:51;;;;;;;;;;;7.70;98.90;;;;;;4967563;28;20675;-75
2022/05/01 06:15:18;;;;;;;;;;;7.70;98.80;;;;;;4970354;28;20404;-75
2022/05/01 06:17:45;;;;;;;;;;;7.70;98.90;;;;;;4963581;28;19950;-75
2022/05/01 06:20:12;;;;;;;;;;;7.70;98.90;;;;;;4963881;28;20041;-74
2022/05/01 06:22:41;;;;;;;;;;;7.70;99.00;;;;;;4960651;28;19938;-75
2022/05/01 06:25:08;;;;;;;;;;;7.70;99.20;;;;;;4962335;28;19934;-76
2022/05/01 06:27:36;;;;;;;;;;;7.70;99.10;;;;;;4979613;28;20348;-77
2022/05/01 06:30:03;;;;;;;;;;;7.70;99.20;;;;;;4961928;28;19973;-77
2022/05/01 06:32:30;;;;;;;;;;;7.80;99.30;;;;;;4959277;28;19945;-76
2022/05/01 06:34:57;;;;;;;;;;;7.80;99.30;;;;;;4965112;28;19942;-75
2022/05/01 06:37:24;;;;;;;;;;;7.80;99.30;;;;;;4958618;28;20415;-76
2022/05/01 06:39:53;;;;;;;;;;;7.80;99.30;;;;;;4962651;28;20397;-75
2022/05/01 06:42:20;;;;;;;;;;;7.80;99.30;;;;;;4980090;28;20029;-78
2022/05/01 06:44:47;;;;;;;;;;;7.80;99.40;;;;;;4965996;28;20110;-75
2022/05/01 06:47:14;;;;;;;;;;;7.80;99.40;;;;;;4997655;23;19934;-86
2022/05/01 06:49:41;;;;;;;;;;;7.90;99.60;;;;;;4983026;28;20343;-86
2022/05/01 06:52:08;;;;;;;;;;;7.90;99.70;;;;;;4965707;28;19941;-86
2022/05/01 06:54:35;;;;;;;;;;;7.90;99.90;;;;;;4956556;28;20011;-86
2022/05/01 06:57:04;;;;;;;;;;;7.90;99.90;;;;;;4957913;28;20426;-87
2022/05/01 06:59:31;;;;;;;;;;;7.90;99.90;;;;;;4957450;28;19933;-85
2022/05/01 07:01:58;;;;;;;;;;;7.90;99.90;;;;;;4960022;28;19930;-85
2022/05/01 07:04:25;;;;;;;;;;;8.00;99.90;;;;;;4960055;28;19930;-86
2022/05/01 07:06:52;;;;;;;;;;;8.00;99.90;;;;;;4961339;28;19926;-86
2022/05/01 07:09:19;;;;;;;;;;;8.00;99.90;;;;;;4959495;28;19934;-86
2022/05/01 07:11:46;;;;;;;;;;;8.10;99.90;;;;;;4951241;28;22271;-86
2022/05/01 07:14:14;;;;;;;;;;;8.10;99.90;;;;;;4960598;28;19926;-86
2022/05/01 07:16:41;;;;;;;;;;;8.10;99.90;;;;;;4961299;28;19980;-84
2022/05/01 07:19:08;;;;;;;;;;;8.20;99.90;;;;;;4961339;28;20625;-86
2022/05/01 07:21:35;;;;;;;;;;;8.20;99.90;;;;;;4958843;28;19973;-86
2022/05/01 07:24:02;;;;;;;;;;;8.20;99.90;;;;;;4964024;28;20408;-86
2022/05/01 07:26:33;;;;;;;;;;;8.30;99.90;;;;;;4955199;28;19933;-86
2022/05/01 07:29:00;;;;;;;;;;;8.30;99.90;;;;;;4953522;28;20013;-84
2022/05/01 07:31:28;;;;;;;;;;;8.20;99.90;;;;;;4947773;28;19932;-86
2022/05/01 07:33:55;;;;;;;;;;;8.40;99.90;;;;;;4959202;28;20016;-86
2022/05/01 07:36:23;;;;;;;;;;;8.40;99.90;;;;;;4964394;28;19938;-87
2022/05/01 07:38:50;;;;;;;;;;;8.40;99.90;;;;;;4955217;28;19945;-86
2022/05/01 07:41:17;;;;;;;;;;;8.40;99.90;;;;;;4949924;28;19934;-87
2022/05/01 07:43:44;;;;;;;;;;;8.50;99.90;;;;;;4954199;28;19937;-86
2022/05/01 07:46:11;;;;;;;;;;;8.40;99.90;;;;;;4950032;28;21678;-85
2022/05/01 07:48:40;;;;;;;;;;;8.50;99.90;;;;;;4961027;28;19933;-89
2022/05/01 07:51:07;;;;;;;;;;;8.50;99.90;;;;;;4963541;28;19973;-86
2022/05/01 07:53:34;;;;;;;;;;;8.50;99.90;;;;;;4963035;28;19930;-81
2022/05/01 07:56:01;;;;;;;;;;;8.50;99.90;;;;;;4958907;28;19926;-84
2022/05/01 07:58:28;;;;;;;;;;;8.50;99.90;;;;;;4965900;28;19934;-90
2022/05/01 08:00:58;;;;;;;;;;;8.50;99.90;;;;;;4965820;28;19962;-82
2022/05/01 08:06:11;;;;;;;;;;;8.70;99.90;;;;;;4956005;28;19961;-88
2022/05/01 08:08:38;;;;;;;;;;;8.60;99.90;;;;;;4985078;28;19940;-87
2022/05/01 08:11:05;;;;;;;;;;;8.60;99.90;;;;;;4978559;28;19934;-89
2022/05/01 08:13:32;;;;;;;;;;;8.60;99.90;;;;;;4974429;28;19942;-89
2022/05/01 08:16:01;;;;;;;;;;;8.60;99.90;;;;;;4958297;28;19966;-87
2022/05/01 08:21:16;;;;;;;;;;;8.70;99.90;;;;;;4957908;28;19930;-85
2022/05/01 08:23:43;;;;;;;;;;;8.70;99.90;;;;;;4956947;28;19930;-86
2022/05/01 08:26:11;;;;;;;;;;;8.70;99.90;;;;;;4954453;28;20521;-84
2022/05/01 08:28:41;;;;;;;;;;;8.90;99.90;;;;;;4952746;28;21854;-83
2022/05/01 08:31:08;;;;;;;;;;;8.80;99.90;;;;;;4967933;28;19932;-84
2022/05/01 08:33:35;;;;;;;;;;;8.90;99.90;;;;;;4972189;28;19970;-83
2022/05/01 08:36:03;;;;;;;;;;;9.00;99.90;;;;;;4963935;28;19934;-82
2022/05/01 08:38:32;;;;;;;;;;;8.90;99.90;;;;;;4969126;28;19941;-82
2022/05/01 08:40:59;;;;;;;;;;;9.00;99.90;;;;;;4964334;28;19945;-83
2022/05/01 08:43:27;;;;;;;;;;;9.00;99.90;;;;;;4964612;28;19953;-82
2022/05/01 08:45:59;;;;;;;;;;;9.00;99.90;;;;;;4963830;28;20313;-83
2022/05/01 08:48:29;;;;;;;;;;;9.00;99.90;;;;;;4969935;28;19934;-83
2022/05/01 08:50:56;;;;;;;;;;;9.00;99.90;;;;;;4969165;28;19977;-83
2022/05/01 08:53:23;;;;;;;;;;;9.10;99.90;;;;;;4982791;28;19933;-83
2022/05/01 08:55:52;;;;;;;;;;;9.10;99.90;;;;;;4969953;28;19977;-83
2022/05/01 08:58:19;;;;;;;;;;;9.10;99.90;;;;;;4968078;28;19972;-82
2022/05/01 09:00:46;;;;;;;;;;;9.10;99.90;;;;;;4967451;28;19938;-83
2022/05/01 09:03:14;;;;;;;;;;;9.20;99.90;;;;;;4969493;28;19957;-83
2022/05/01 09:05:40;;;;;;;;;;;9.20;99.90;;;;;;4975057;28;19956;-82
2022/05/01 09:08:08;;;;;;;;;;;9.20;99.90;;;;;;4975813;28;19926;-82
2022/05/01 09:10:35;;;;;;;;;;;9.20;99.90;;;;;;4976053;28;20025;-82
2022/05/01 09:13:02;;;;;;;;;;;9.20;99.90;;;;;;4967817;28;20016;-83
2022/05/01 09:15:30;;;;;;;;;;;9.30;99.90;;;;;;4969492;28;19965;-83
2022/05/01 09:18:01;;;;;;;;;;;9.30;99.90;;;;;;4959187;28;19988;-82
2022/05/01 09:20:28;;;;;;;;;;;9.30;99.90;;;;;;4964449;28;19926;-82
2022/05/01 09:22:55;;;;;;;;;;;9.30;99.90;;;;;;4967346;28;20013;-82
2022/05/01 09:25:23;;;;;;;;;;;9.30;99.90;;;;;;4968615;28;19941;-83
2022/05/01 09:27:52;;;;;;;;;;;9.40;99.90;;;;;;4966124;28;20040;-82
2022/05/01 09:30:21;;;;;;;;;;;9.40;99.90;;;;;;4969159;28;20542;-82
2022/05/01 09:32:48;;;;;;;;;;;9.40;99.90;;;;;;4968203;28;20260;-82
2022/05/01 09:35:16;;;;;;;;;;;9.50;99.90;;;;;;4965299;28;19934;-83
2022/05/01 09:37:47;;;;;;;;;;;9.50;99.90;;;;;;4965326;28;19933;-82
2022/05/01 09:40:29;;;;;;;;;;;9.50;99.90;;;;;;4974544;28;19992;-82
2022/05/01 09:42:56;;;;;;;;;;;9.50;99.90;;;;;;4971100;28;19926;-83
2022/05/01 09:45:29;;;;;;;;;;;9.50;99.90;;;;;;4976197;28;19933;-83
2022/05/01 09:47:56;;;;;;;;;;;9.50;99.90;;;;;;4971627;28;19930;-83
2022/05/01 09:50:39;;;;;;;;;;;9.50;99.90;;;;;;4949991;28;20070;-83
2022/05/01 09:53:06;;;;;;;;;;;9.60;99.90;;;;;;4956980;28;19937;-82
2022/05/01 09:55:33;;;;;;;;;;;9.60;99.90;;;;;;4965804;28;19997;-83
2022/05/01 09:58:04;;;;;;;;;;;9.60;99.90;;;;;;4951497;28;19965;-82
2022/05/01 10:00:36;;;;;;;;;;;9.60;99.90;;;;;;4965886;28;19927;-83
2022/05/01 10:03:22;;;;;;;;;;;9.70;99.90;;;;;;4948547;28;19933;-83
2022/05/01 10:05:49;;;;;;;;;;;9.70;99.90;;;;;;4965374;28;20320;-82
2022/05/01 10:08:17;;;;;;;;;;;9.70;99.90;;;;;;4967352;28;19930;-83
2022/05/01 10:10:45;;;;;;;;;;;9.70;99.90;;;;;;4969286;28;19926;-82
2022/05/01 10:13:13;;;;;;;;;;;9.80;99.90;;;;;;4960987;28;19934;-82
2022/05/01 10:15:41;;;;;;;;;;;9.80;99.90;;;;;;4974089;28;19926;-83
2022/05/01 10:18:08;;;;;;;;;;;9.80;99.90;;;;;;4950444;28;19973;-82
2022/05/01 10:20:35;;;;;;;;;;;9.80;99.90;;;;;;4975433;28;20400;-82
2022/05/01 10:23:03;;;;;;;;;;;9.80;99.90;;;;;;4962029;28;19936;-82
2022/05/01 10:25:33;;;;;;;;;;;9.90;99.90;;;;;;4959928;28;19926;-83
2022/05/01 10:28:04;;;;;;;;;;;9.90;99.90;;;;;;4967194;28;19934;-83
2022/05/01 10:33:29;;;;;;;;;;;9.90;99.90;;;;;;4968600;28;20008;-82
2022/05/01 10:36:06;;;;;;;;;;;10.00;99.90;;;;;;4963722;28;19934;-82
2022/05/01 10:38:40;;;;;;;;;;;10.00;99.90;;;;;;4949712;28;19926;-82
2022/05/01 10:41:07;;;;;;;;;;;10.10;99.90;;;;;;4949558;28;20476;-83
2022/05/01 10:43:36;;;;;;;;;;;10.10;99.90;;;;;;4963036;28;20316;-82
2022/05/01 10:46:04;;;;;;;;;;;10.10;99.90;;;;;;4973434;28;19937;-82
2022/05/01 10:48:37;;;;;;;;;;;10.20;99.90;;;;;;4971916;28;19926;-82
2022/05/01 10:51:22;;;;;;;;;;;10.20;99.90;;;;;;4983824;28;19934;-82
2022/05/01 10:54:04;;;;;;;;;;;10.30;99.90;;;;;;4987807;28;19926;-83
2022/05/01 10:56:34;;;;;;;;;;;10.30;99.90;;;;;;4986761;28;20384;-82
2022/05/01 10:59:16;;;;;;;;;;;10.30;99.90;;;;;;4978028;28;19934;-82
2022/05/01 11:01:53;;;;;;;;;;;10.30;99.90;;;;;;4971822;28;20364;-83
2022/05/01 11:04:22;;;;;;;;;;;10.30;99.90;;;;;;4984249;28;19933;-82
2022/05/01 11:06:50;;;;;;;;;;;10.40;99.90;;;;;;4987306;28;19997;-82
2022/05/01 11:09:19;;;;;;;;;;;10.40;99.90;;;;;;4986629;28;19933;-82
2022/05/01 11:11:47;;;;;;;;;;;10.40;99.90;;;;;;4980474;28;19926;-82
2022/05/01 11:14:14;;;;;;;;;;;10.40;99.90;;;;;;4968207;28;19957;-83
2022/05/01 11:16:51;;;;;;;;;;;10.50;99.90;;;;;;4987356;28;19925;-83
2022/05/01 11:19:18;;;;;;;;;;;10.50;99.90;;;;;;4986087;28;19925;-82
2022/05/01 11:21:49;;;;;;;;;;;10.50;99.90;;;;;;4979076;28;19926;-82
2022/05/01 11:24:16;;;;;;;;;;;10.60;99.90;;;;;;4984772;28;20009;-83
2022/05/01 11:27:12;;;;;;;;;;;10.60;99.90;;;;;;4982598;28;20025;-82
2022/05/01 11:29:39;;;;;;;;;;;10.70;99.90;;;;;;4984916;28;19933;-82
2022/05/01 11:32:17;;;;;;;;;;;10.70;99.90;;;;;;4995900;28;19925;-82
2022/05/01 11:34:54;;;;;;;;;;;10.70;99.90;;;;;;4998784;28;19940;-82
2022/05/01 11:37:24;;;;;;;;;;;10.70;99.90;;;;;;4982575;28;19969;-82
2022/05/01 11:40:21;;;;;;;;;;;10.80;99.90;;;;;;4985212;28;20275;-82
2022/05/01 11:42:48;;;;;;;;;;;10.80;99.90;;;;;;4973340;28;19985;-82
2022/05/01 11:45:18;;;;;;;;;;;10.80;99.90;;;;;;4966159;28;19944;-82
2022/05/01 11:47:50;;;;;;;;;;;10.90;99.90;;;;;;4968752;28;20056;-82
2022/05/01 11:50:19;;;;;;;;;;;10.90;99.90;;;;;;4988632;28;19930;-82
2022/05/01 11:52:53;;;;;;;;;;;10.90;99.90;;;;;;4981913;28;20009;-82
2022/05/01 11:55:20;;;;;;;;;;;11.00;99.90;;;;;;4983321;28;19940;-82
2022/05/01 12:03:29;;;;;;;;;;;11.00;99.90;;;;;;4974291;28;19953;-82
2022/05/01 12:05:56;;;;;;;;;;;11.10;99.90;;;;;;4991684;28;19934;-82
2022/05/01 12:08:25;;;;;;;;;;;11.10;99.90;;;;;;4998537;28;20024;-82
2022/05/01 12:10:52;;;;;;;;;;;11.10;99.90;;;;;;4979567;28;19926;-82
2022/05/01 12:13:20;;;;;;;;;;;11.20;99.90;;;;;;4984243;28;19965;-82
2022/05/01 12:15:48;;;;;;;;;;;11.20;99.90;;;;;;4983915;28;20021;-81
2022/05/01 12:18:15;;;;;;;;;;;11.20;99.90;;;;;;4985032;28;19925;-82
2022/05/01 12:20:42;;;;;;;;;;;11.30;99.90;;;;;;4984721;28;19996;-82
2022/05/01 12:23:13;;;;;;;;;;;11.30;99.90;;;;;;4985460;28;20360;-82
2022/05/01 12:25:42;;;;;;;;;;;11.30;99.90;;;;;;4986946;28;19934;-82
2022/05/01 12:28:10;;;;;;;;;;;11.30;99.90;;;;;;4970137;28;20363;-82
2022/05/01 12:30:38;;;;;;;;;;;11.30;99.90;;;;;;4985587;28;19929;-82
2022/05/01 12:33:05;;;;;;;;;;;11.40;99.90;;;;;;4989948;28;19933;-82
2022/05/01 12:35:46;;;;;;;;;;;11.40;99.90;;;;;;4968253;28;20028;-82
2022/05/01 12:38:15;;;;;;;;;;;11.50;99.90;;;;;;4977842;28;19932;-82
2022/05/01 12:46:23;;;;;;;;;;;11.50;99.90;;;;;;4996571;28;19925;-82
2022/05/01 12:48:50;;;;;;;;;;;11.60;99.90;;;;;;4976581;23;20312;-77
2022/05/01 12:51:17;;;;;;;;;;;11.60;99.90;;;;;;4968342;28;19945;-78
2022/05/01 12:53:43;;;;;;;;;;;11.60;99.90;;;;;;4964628;28;20550;-77
2022/05/01 12:56:22;;;;;;;;;;;11.60;99.90;;;;;;4962945;28;19934;-77
2022/05/01 12:58:49;;;;;;;;;;;11.70;99.90;;;;;;4946606;28;19934;-77
2022/05/01 13:01:23;;;;;;;;;;;11.70;99.90;;;;;;4965650;28;20037;-77
2022/05/01 13:03:50;;;;;;;;;;;11.70;99.90;;;;;;4962452;28;19934;-77
2022/05/01 13:06:18;;;;;;;;;;;11.80;99.90;;;;;;4964214;28;20230;-78
2022/05/01 13:08:46;;;;;;;;;;;11.80;99.90;;;;;;4964100;28;19926;-77
2022/05/01 13:11:24;;;;;;;;;;;11.90;99.90;;;;;;4965715;28;19937;-77
2022/05/01 13:13:52;;;;;;;;;;;11.90;99.90;;;;;;4945099;28;19989;-79
2022/05/01 13:16:22;;;;;;;;;;;11.90;99.90;;;;;;4950040;28;19934;-79
2022/05/01 13:18:51;;;;;;;;;;;12.00;99.90;;;;;;4966393;28;20440;-77
2022/05/01 13:21:18;;;;;;;;;;;12.00;99.90;;;;;;4972391;28;19937;-78
2022/05/01 13:23:45;;;;;;;;;;;12.00;99.90;;;;;;4963286;28;19926;-77
2022/05/01 13:26:12;;;;;;;;;;;12.10;99.90;;;;;;4975725;28;20395;-77
2022/05/01 13:28:42;;;;;;;;;;;12.10;99.90;;;;;;4955157;28;19989;-77
2022/05/01 13:31:09;;;;;;;;;;;12.10;99.90;;;;;;4948360;28;20321;-77
2022/05/01 13:33:36;;;;;;;;;;;12.10;99.90;;;;;;5042808;23;19926;-75
2022/05/01 13:38:30;;;;;;;;;;;12.20;99.90;;;;;;4941625;28;19930;-77
2022/05/01 13:46:28;;;;;;;;;;;12.30;99.90;;;;;;4925238;29;19981;-77
2022/05/01 13:48:57;;;;;;;;;;;12.30;99.90;;;;;;4924770;29;19931;-77
2022/05/01 13:51:24;;;;;;;;;;;12.40;99.90;;;;;;4926162;29;20298;-78
2022/05/01 13:53:51;;;;;;;;;;;12.40;99.90;;;;;;4933640;29;20009;-77
2022/05/01 13:56:18;;;;;;;;;;;12.40;99.90;;;;;;4941273;29;19926;-77
2022/05/01 13:58:47;;;;;;;;;;;12.40;99.90;;;;;;4931277;29;19930;-77
2022/05/01 14:01:14;;;;;;;;;;;12.40;99.90;;;;;;4924297;29;19935;-77
2022/05/01 14:03:41;;;;;;;;;;;12.50;99.90;;;;;;4927685;29;20642;-77
2022/05/01 14:06:09;;;;;;;;;;;12.50;99.90;;;;;;4927229;29;19942;-77
2022/05/01 14:08:36;;;;;;;;;;;12.50;99.90;;;;;;4928074;29;20088;-79
2022/05/01 14:11:04;;;;;;;;;;;12.60;99.90;;;;;;4943159;28;20411;-77
2022/05/01 14:13:31;;;;;;;;;;;12.60;99.90;;;;;;4946516;28;19934;-79
2022/05/01 14:15:59;;;;;;;;;;;12.60;99.90;;;;;;4943771;28;20025;-78
2022/05/01 14:18:27;;;;;;;;;;;12.60;99.90;;;;;;4943539;28;19948;-78
2022/05/01 14:20:56;;;;;;;;;;;12.70;99.90;;;;;;4945192;28;19935;-79
2022/05/01 14:23:23;;;;;;;;;;;12.70;99.90;;;;;;4941391;28;20029;-77
2022/05/01 14:25:50;;;;;;;;;;;12.70;99.90;;;;;;4943899;28;19927;-77
2022/05/01 14:28:17;;;;;;;;;;;12.80;99.90;;;;;;4943669;28;19950;-77
2022/05/01 14:30:46;;;;;;;;;;;12.80;99.90;;;;;;4954181;28;19933;-77
2022/05/01 14:33:15;;;;;;;;;;;12.80;99.90;;;;;;4929599;29;19981;-77
2022/05/01 14:35:44;;;;;;;;;;;12.80;99.90;;;;;;4961375;28;19973;-77
2022/05/01 14:38:17;;;;;;;;;;;12.80;99.90;;;;;;4965380;28;19926;-77
2022/05/01 14:40:46;;;;;;;;;;;12.80;99.90;;;;;;4952549;28;19938;-79
2022/05/01 14:43:15;;;;;;;;;;;12.90;99.90;;;;;;4952245;28;19934;-78
2022/05/01 14:45:48;;;;;;;;;;;12.90;99.90;;;;;;4955839;28;19929;-80
2022/05/01 14:48:21;;;;;;;;;;;12.90;99.90;;;;;;4954950;28;19934;-78
2022/05/01 14:50:48;;;;;;;;;;;12.90;99.90;;;;;;4959205;28;19926;-77
2022/05/01 14:53:18;;;;;;;;;;;12.90;99.90;;;;;;4959505;28;19934;-78
2022/05/01 14:55:49;;;;;;;;;;;12.90;99.90;;;;;;4957456;28;19930;-77
2022/05/01 15:06:35;;;;;;;;;;;13.10;99.90;;;;;;4967942;28;20094;-79
2022/05/01 15:09:04;;;;;;;;;;;13.10;99.90;;;;;;4974289;28;19925;-79
2022/05/01 15:11:33;;;;;;;;;;;13.10;99.90;;;;;;4961877;28;19930;-79
2022/05/01 15:14:01;;;;;;;;;;;13.10;99.90;;;;;;4960270;28;19934;-78
2022/05/01 15:16:29;;;;;;;;;;;13.10;99.90;;;;;;4962565;28;19930;-77
2022/05/01 15:19:00;;;;;;;;;;;13.10;99.90;;;;;;4963196;28;20415;-77
2022/05/01 15:24:24;;;;;;;;;;;13.20;99.90;;;;;;4955717;28;19970;-77
2022/05/01 15:26:58;;;;;;;;;;;13.20;99.90;;;;;;4956805;28;19930;-77